Cloudcroft, New Mexico
Current Conditions -  °F | °C
As of 11:35 AM on Sunday 25 Jan 2015 (Local Time) from KALM Reporting Station
Clear Clear  
Wind Chill: 50°   Ceiling: Unl
Heat Index: 50°   Visibility: 10mi
Dew Point: 25°   Wind: 6mph
Humidity: 37%   Direction: 230°SW
Pressure: 30.3"   Gusts: NA
Location:  32.96°N, 105.74°W
Report Text: KALM 251835Z AUTO 23005KT 10SM CLR 10/M04 A3030 RMK AO2
Loading
Personal Weather Stations






























Interactive Weather Map New forecast layout! Learn more

10-Day Weather Forecast

Advertisements
Track Severe Weather on mobile